createdAt,value
2023-06-02T00:02:30.947Z,9.18
2023-06-02T00:05:34.270Z,9.23
2023-06-02T00:08:39.456Z,9.15
2023-06-02T00:11:41.685Z,9.07
2023-06-02T00:14:43.894Z,9.06
2023-06-02T00:17:47.587Z,9.02
2023-06-02T00:20:49.764Z,8.99
2023-06-02T00:23:51.860Z,8.96
2023-06-02T00:26:53.802Z,8.90
2023-06-02T00:29:56.162Z,8.87
2023-06-02T00:32:59.862Z,8.86
2023-06-02T00:36:01.670Z,8.84
2023-06-02T00:39:04.070Z,8.83
2023-06-02T00:42:06.562Z,8.79
2023-06-02T00:45:09.690Z,8.83
2023-06-02T00:48:13.497Z,8.77
2023-06-02T00:51:16.465Z,8.78
2023-06-02T00:54:18.882Z,8.80
2023-06-02T00:57:22.306Z,8.80
2023-06-02T01:00:27.921Z,8.71
2023-06-02T01:03:32.601Z,8.67
2023-06-02T01:06:36.023Z,8.66
2023-06-02T01:09:38.040Z,8.65
2023-06-02T01:12:40.587Z,8.56
2023-06-02T01:15:46.177Z,8.57
2023-06-02T01:18:54.217Z,8.58
2023-06-02T01:22:01.200Z,8.55
2023-06-02T01:25:17.076Z,8.51
2023-06-02T01:28:19.294Z,8.45
2023-06-02T01:31:23.612Z,8.45
2023-06-02T01:34:29.941Z,8.39
2023-06-02T01:37:37.085Z,8.35
2023-06-02T01:40:41.410Z,8.32
2023-06-02T01:43:43.758Z,8.30
2023-06-02T01:46:46.815Z,8.33
2023-06-02T01:49:50.179Z,8.33
2023-06-02T01:52:52.578Z,8.31
2023-06-02T01:55:56.487Z,8.27
2023-06-02T01:58:59.687Z,8.21
2023-06-02T02:02:01.738Z,8.21
2023-06-02T02:05:04.570Z,8.21
2023-06-02T02:08:06.969Z,8.20
2023-06-02T02:11:10.558Z,8.16
2023-06-02T02:14:14.689Z,8.09
2023-06-02T02:17:17.584Z,8.07
2023-06-02T02:20:21.131Z,8.01
2023-06-02T02:23:23.188Z,8.03
2023-06-02T02:26:27.622Z,8.04
2023-06-02T02:29:29.687Z,8.08
2023-06-02T02:32:31.893Z,8.05
2023-06-02T02:35:34.313Z,8.02
2023-06-02T02:38:37.112Z,8.01
2023-06-02T02:41:40.671Z,8.00
2023-06-02T02:44:42.981Z,7.97
2023-06-02T02:47:45.742Z,7.97
2023-06-02T02:50:48.346Z,8.02
2023-06-02T02:53:50.442Z,8.03
2023-06-02T02:56:54.939Z,7.99
2023-06-02T02:59:57.415Z,7.93
2023-06-02T03:03:02.631Z,7.94
2023-06-02T03:06:05.029Z,7.92
2023-06-02T03:09:07.911Z,7.96
2023-06-02T03:12:13.487Z,8.01
2023-06-02T03:15:16.365Z,7.96
2023-06-02T03:18:19.571Z,7.93
2023-06-02T03:21:23.550Z,7.93
2023-06-02T03:24:25.991Z,7.93
2023-06-02T03:27:31.753Z,7.95
2023-06-02T03:30:34.674Z,7.94
2023-06-02T03:33:37.975Z,7.94
2023-06-02T03:36:40.945Z,7.96
2023-06-02T03:39:44.340Z,7.97
2023-06-02T03:42:47.911Z,8.04
2023-06-02T03:45:50.661Z,8.03
2023-06-02T03:48:53.159Z,8.05
2023-06-02T03:51:55.537Z,8.03
2023-06-02T03:54:57.890Z,8.01
2023-06-02T03:58:01.646Z,8.02
2023-06-02T04:01:06.104Z,8.09
2023-06-02T04:04:13.529Z,8.08
2023-06-02T04:07:16.336Z,8.07
2023-06-02T04:10:19.543Z,8.13
2023-06-02T04:13:23.323Z,8.16
2023-06-02T04:16:25.553Z,8.11
2023-06-02T04:19:27.661Z,8.10
2023-06-02T04:22:30.995Z,8.13
2023-06-02T04:25:33.700Z,8.21
2023-06-02T04:28:37.554Z,8.24
2023-06-02T04:31:40.849Z,8.34
2023-06-02T04:34:44.683Z,8.35
2023-06-02T04:37:47.435Z,8.34
2023-06-02T04:40:52.221Z,8.39
2023-06-02T04:43:57.933Z,8.51
2023-06-02T04:47:00.054Z,8.55
2023-06-02T04:50:02.375Z,8.60
2023-06-02T04:53:06.289Z,8.59
2023-06-02T04:56:08.348Z,8.60
2023-06-02T04:59:13.199Z,8.60
2023-06-02T05:02:16.516Z,8.67
2023-06-02T05:05:18.564Z,8.73
2023-06-02T05:08:21.654Z,8.66
2023-06-02T05:11:25.711Z,8.67
2023-06-02T05:14:30.160Z,8.65
2023-06-02T05:17:32.757Z,8.72
2023-06-02T05:20:37.353Z,8.80
2023-06-02T05:23:40.731Z,8.76
2023-06-02T05:26:43.549Z,8.70
2023-06-02T05:29:47.414Z,8.60
2023-06-02T05:32:50.597Z,8.64
2023-06-02T05:35:53.292Z,8.66
2023-06-02T05:38:56.277Z,8.68
2023-06-02T05:41:58.982Z,8.64
2023-06-02T05:45:06.827Z,8.61
2023-06-02T05:48:10.861Z,8.72
2023-06-02T05:51:15.861Z,8.86
2023-06-02T05:54:21.226Z,8.94
2023-06-02T05:57:23.345Z,8.85
2023-06-02T06:00:27.322Z,8.95
2023-06-02T06:03:29.515Z,8.97
2023-06-02T06:06:31.756Z,8.93
2023-06-02T06:09:33.904Z,8.97
2023-06-02T06:12:38.364Z,8.91
2023-06-02T06:15:41.838Z,8.89
2023-06-02T06:18:46.041Z,9.16
2023-06-02T06:21:48.327Z,9.21
2023-06-02T06:24:50.566Z,9.27
2023-06-02T06:27:53.050Z,9.25
2023-06-02T06:30:57.807Z,9.09
2023-06-02T06:34:00.655Z,9.22
2023-06-02T06:37:02.844Z,9.39
2023-06-02T06:40:05.120Z,9.45
2023-06-02T06:43:23.058Z,9.47
2023-06-02T06:46:37.167Z,9.45
2023-06-02T06:49:40.824Z,9.49
2023-06-02T06:52:43.259Z,9.46
2023-06-02T06:55:45.716Z,9.41
2023-06-02T06:58:47.704Z,9.39
2023-06-02T07:01:51.485Z,9.42
2023-06-02T07:04:53.772Z,9.40
2023-06-02T07:07:58.017Z,9.55
2023-06-02T07:11:00.141Z,9.60
2023-06-02T07:14:14.670Z,9.76
2023-06-02T07:17:20.006Z,9.89
2023-06-02T07:20:22.266Z,9.98
2023-06-02T07:23:25.181Z,10.11
2023-06-02T07:26:27.463Z,10.00
2023-06-02T07:29:29.769Z,9.82
2023-06-02T07:32:33.304Z,9.76
2023-06-02T07:35:38.868Z,9.81
2023-06-02T07:38:41.329Z,10.05
2023-06-02T07:41:43.817Z,10.04
2023-06-02T07:44:46.159Z,10.09
2023-06-02T07:47:49.949Z,10.07
2023-06-02T07:50:52.673Z,9.91
2023-06-02T07:53:55.104Z,9.94
2023-06-02T07:56:59.622Z,9.99
2023-06-02T08:00:09.983Z,10.15
2023-06-02T08:03:15.551Z,10.47
2023-06-02T08:06:21.082Z,10.56
2023-06-02T08:09:23.926Z,10.41
2023-06-02T08:12:26.881Z,10.25
2023-06-02T08:15:29.061Z,10.30
2023-06-02T08:18:32.730Z,10.35
2023-06-02T08:21:38.687Z,10.39
2023-06-02T08:24:40.814Z,10.73
2023-06-02T08:27:47.492Z,10.85
2023-06-02T08:30:49.792Z,11.00
2023-06-02T08:33:58.375Z,11.03
2023-06-02T08:37:02.205Z,11.25
2023-06-02T08:40:06.988Z,11.08
2023-06-02T08:43:14.772Z,10.95
2023-06-02T08:46:17.363Z,10.96
2023-06-02T08:49:23.191Z,11.10
2023-06-02T08:52:28.390Z,11.13
2023-06-02T08:55:30.927Z,11.26
2023-06-02T08:58:34.310Z,11.13
2023-06-02T09:01:36.516Z,11.22
2023-06-02T09:04:40.260Z,11.23
2023-06-02T09:07:42.360Z,11.22
2023-06-02T09:10:46.767Z,11.28
2023-06-02T09:13:48.963Z,11.53
2023-06-02T09:16:52.088Z,11.64
2023-06-02T09:19:56.442Z,11.45
2023-06-02T09:22:59.277Z,11.44
2023-06-02T09:26:06.139Z,11.61
2023-06-02T09:29:13.754Z,11.67
2023-06-02T09:32:16.521Z,11.68
2023-06-02T09:35:37.138Z,11.44
2023-06-02T09:38:44.765Z,11.52
2023-06-02T09:41:47.590Z,11.51
2023-06-02T09:45:12.142Z,11.62
2023-06-02T09:48:18.295Z,11.53
2023-06-02T09:51:24.177Z,11.90
2023-06-02T09:54:27.772Z,12.14
2023-06-02T09:57:31.781Z,12.06
2023-06-02T10:00:35.786Z,12.17
2023-06-02T10:03:37.786Z,12.24
2023-06-02T10:06:46.141Z,12.13
2023-06-02T10:09:57.667Z,12.27
2023-06-02T10:13:13.608Z,12.80
2023-06-02T10:16:25.433Z,12.75
2023-06-02T10:19:39.076Z,13.24
2023-06-02T10:22:49.781Z,13.15
2023-06-02T10:26:05.956Z,12.85
2023-06-02T10:29:09.753Z,13.04
2023-06-02T10:32:23.803Z,13.05
2023-06-02T10:35:46.440Z,13.65
2023-06-02T10:38:48.703Z,14.31
2023-06-02T10:42:08.007Z,14.58
2023-06-02T10:45:31.692Z,14.68
2023-06-02T10:48:39.584Z,14.59
2023-06-02T10:51:56.670Z,14.76
2023-06-02T10:55:19.795Z,15.08
2023-06-02T10:58:44.773Z,15.49
2023-06-02T11:01:48.937Z,15.81
2023-06-02T11:04:52.004Z,15.36
2023-06-02T11:08:11.151Z,15.10
2023-06-02T11:11:13.496Z,15.32
2023-06-02T11:14:18.045Z,15.21
2023-06-02T11:17:32.586Z,14.97
2023-06-02T11:20:38.687Z,15.05
2023-06-02T11:23:42.533Z,15.51
2023-06-02T11:26:47.882Z,15.34
2023-06-02T11:33:23.209Z,15.50
2023-06-02T11:36:27.289Z,15.93
2023-06-02T11:39:31.885Z,15.94
2023-06-02T11:42:47.310Z,15.71
2023-06-02T11:45:49.410Z,16.14
2023-06-02T11:48:56.596Z,16.33
2023-06-02T11:52:01.280Z,15.78
2023-06-02T11:55:11.912Z,15.67
2023-06-02T11:58:24.542Z,15.21
2023-06-02T12:01:31.925Z,15.10
2023-06-02T12:04:45.529Z,15.53
2023-06-02T12:07:52.451Z,16.06
2023-06-02T12:11:00.280Z,15.99
2023-06-02T12:14:04.072Z,16.12
2023-06-02T12:17:06.714Z,16.13
2023-06-02T12:20:13.478Z,16.06
2023-06-02T12:23:19.488Z,16.13
2023-06-02T12:26:25.527Z,16.04
2023-06-02T12:29:28.743Z,15.94
2023-06-02T12:32:31.444Z,15.89
2023-06-02T12:35:38.128Z,15.71
2023-06-02T12:38:41.673Z,15.38
2023-06-02T12:41:43.939Z,15.42
2023-06-02T12:44:47.803Z,15.36
2023-06-02T12:47:53.408Z,15.19
2023-06-02T12:50:57.292Z,15.06
2023-06-02T12:53:59.676Z,15.28
2023-06-02T12:57:01.719Z,15.30
2023-06-02T13:00:04.656Z,15.76
2023-06-02T13:03:07.352Z,16.18
2023-06-02T13:06:11.131Z,15.87
2023-06-02T13:09:13.625Z,15.74
2023-06-02T13:12:17.105Z,16.00
2023-06-02T13:15:19.020Z,15.94
2023-06-02T13:18:22.607Z,16.47
2023-06-02T13:21:26.488Z,16.47
2023-06-02T13:24:29.711Z,16.52
2023-06-02T13:27:42.237Z,16.85
2023-06-02T13:30:45.797Z,17.26
2023-06-02T13:33:48.966Z,17.53
2023-06-02T13:36:52.742Z,17.37
2023-06-02T13:39:57.182Z,16.87
2023-06-02T13:42:59.400Z,17.08
2023-06-02T13:46:01.539Z,17.70
2023-06-02T13:49:03.709Z,17.82
2023-06-02T13:52:09.115Z,17.15
2023-06-02T13:55:11.348Z,16.84
2023-06-02T13:58:13.608Z,16.71
2023-06-02T14:01:15.871Z,17.13
2023-06-02T14:04:17.799Z,16.99
2023-06-02T14:07:21.797Z,16.89
2023-06-02T14:10:24.211Z,16.65
2023-06-02T14:13:26.765Z,16.39
2023-06-02T14:16:28.766Z,16.24
2023-06-02T14:19:31.059Z,16.12
2023-06-02T14:22:37.480Z,16.02
2023-06-02T14:25:39.732Z,16.02
2023-06-02T14:28:45.259Z,16.06
2023-06-02T14:31:47.501Z,16.10
2023-06-02T14:34:49.843Z,16.07
2023-06-02T14:37:53.754Z,16.10
2023-06-02T14:40:55.834Z,16.14
2023-06-02T14:44:02.103Z,16.36
2023-06-02T14:47:07.359Z,16.91
2023-06-02T14:50:10.277Z,16.90
2023-06-02T14:53:16.100Z,16.78
2023-06-02T14:56:19.488Z,16.60
2023-06-02T14:59:24.281Z,16.49
2023-06-02T15:02:27.573Z,16.61
2023-06-02T15:05:29.734Z,17.46
2023-06-02T15:08:33.465Z,17.50
2023-06-02T15:11:35.963Z,17.19
2023-06-02T15:14:39.470Z,17.06
2023-06-02T15:17:41.874Z,16.91
2023-06-02T15:20:44.271Z,16.74
2023-06-02T15:23:48.220Z,16.93
2023-06-02T15:26:50.872Z,17.21
2023-06-02T15:29:53.187Z,17.00
2023-06-02T15:32:59.094Z,16.72
2023-06-02T15:36:01.285Z,16.55
2023-06-02T15:39:08.258Z,16.48
2023-06-02T15:42:10.480Z,16.45
2023-06-02T15:45:12.846Z,16.41
2023-06-02T15:48:15.231Z,16.53
2023-06-02T15:51:17.601Z,16.43
2023-06-02T15:54:21.553Z,16.49
2023-06-02T15:57:23.747Z,16.44
2023-06-02T16:00:27.426Z,16.43
2023-06-02T16:03:29.704Z,16.40
2023-06-02T16:06:34.551Z,16.34
2023-06-02T16:09:38.042Z,16.35
2023-06-02T16:12:40.284Z,16.33
2023-06-02T16:15:44.246Z,16.33
2023-06-02T16:18:48.496Z,16.39
2023-06-02T16:21:54.711Z,16.44
2023-06-02T16:25:02.505Z,16.48
2023-06-02T16:28:06.485Z,16.46
2023-06-02T16:31:09.002Z,16.38
2023-06-02T16:34:12.282Z,16.36
2023-06-02T16:37:16.859Z,16.31
2023-06-02T16:40:24.981Z,16.34
2023-06-02T16:43:28.346Z,16.32
2023-06-02T16:46:30.592Z,16.27
2023-06-02T16:49:35.959Z,16.17
2023-06-02T16:52:38.034Z,16.08
2023-06-02T16:55:41.566Z,16.14
2023-06-02T16:58:43.962Z,16.32
2023-06-02T17:01:47.166Z,16.43
2023-06-02T17:04:49.349Z,16.58
2023-06-02T17:07:54.599Z,16.55
2023-06-02T17:11:00.395Z,16.45
2023-06-02T17:14:05.814Z,16.40
2023-06-02T17:17:12.631Z,16.17
2023-06-02T17:20:15.355Z,16.10
2023-06-02T17:23:17.463Z,16.03
2023-06-02T17:26:21.087Z,15.93
2023-06-02T17:29:23.256Z,15.88
2023-06-02T17:32:25.976Z,15.87
2023-06-02T17:35:28.610Z,15.81
2023-06-02T17:38:33.477Z,15.78
2023-06-02T17:41:37.567Z,15.71
2023-06-02T17:44:45.073Z,15.67
2023-06-02T17:47:49.973Z,15.61
2023-06-02T17:50:52.489Z,15.58
2023-06-02T17:53:58.909Z,15.53
2023-06-02T17:57:05.593Z,15.50
2023-06-02T18:00:08.553Z,15.50
2023-06-02T18:03:13.057Z,15.48
2023-06-02T18:06:17.626Z,15.45
2023-06-02T18:09:21.015Z,15.41
2023-06-02T18:12:26.049Z,15.38
2023-06-02T18:15:30.179Z,15.37
2023-06-02T18:18:32.313Z,15.32
2023-06-02T18:21:35.068Z,15.27
2023-06-02T18:24:38.655Z,15.23
2023-06-02T18:27:43.078Z,15.18
2023-06-02T18:30:45.873Z,15.12
2023-06-02T18:33:47.944Z,15.06
2023-06-02T18:36:50.187Z,14.99
2023-06-02T18:39:52.267Z,14.93
2023-06-02T18:42:58.404Z,14.88
2023-06-02T18:46:03.915Z,14.81
2023-06-02T18:49:06.339Z,14.74
2023-06-02T18:52:09.684Z,14.70
2023-06-02T18:55:12.079Z,14.68
2023-06-02T18:58:15.670Z,14.63
2023-06-02T19:01:17.819Z,14.60
2023-06-02T19:04:19.934Z,14.60
2023-06-02T19:07:25.184Z,14.59
2023-06-02T19:10:27.346Z,14.56
2023-06-02T19:13:33.514Z,14.54
2023-06-02T19:16:38.240Z,14.51
2023-06-02T19:19:40.968Z,14.46
2023-06-02T19:22:43.553Z,14.39
2023-06-02T19:25:48.117Z,14.31
2023-06-02T19:28:56.929Z,14.25
2023-06-02T19:31:59.093Z,14.20
2023-06-02T19:35:03.033Z,14.14
2023-06-02T19:38:16.999Z,14.06
2023-06-02T19:41:19.217Z,14.00
2023-06-02T19:44:25.947Z,13.93
2023-06-02T19:47:29.807Z,13.81
2023-06-02T19:50:32.444Z,13.76
2023-06-02T19:53:34.836Z,13.67
2023-06-02T19:56:37.175Z,13.57
2023-06-02T19:59:40.840Z,13.52
2023-06-02T20:02:45.580Z,13.44
2023-06-02T20:05:51.812Z,13.38
2023-06-02T20:08:54.002Z,13.30
2023-06-02T20:12:00.123Z,13.25
2023-06-02T20:15:06.349Z,13.15
2023-06-02T20:18:09.474Z,13.09
2023-06-02T20:21:11.636Z,13.05
2023-06-02T20:24:13.990Z,13.01
2023-06-02T20:27:19.450Z,12.97
2023-06-02T20:30:25.636Z,12.90
2023-06-02T20:33:30.813Z,12.84
2023-06-02T20:36:32.949Z,12.81
2023-06-02T20:39:35.315Z,12.78
2023-06-02T20:42:37.919Z,12.76
2023-06-02T20:45:41.707Z,12.69
2023-06-02T20:48:47.057Z,12.59
2023-06-02T20:51:50.464Z,12.50
2023-06-02T20:54:53.707Z,12.51
2023-06-02T20:57:56.124Z,12.49
2023-06-02T21:01:00.045Z,12.42
2023-06-02T21:04:05.392Z,12.35
2023-06-02T21:07:07.596Z,12.26
2023-06-02T21:10:10.178Z,12.15
2023-06-02T21:13:16.166Z,12.16
2023-06-02T21:16:19.961Z,12.15
2023-06-02T21:19:22.360Z,12.17
2023-06-02T21:22:24.844Z,12.21
2023-06-02T21:25:27.322Z,12.17
2023-06-02T21:28:29.837Z,12.21
2023-06-02T21:31:33.419Z,12.20
2023-06-02T21:34:36.665Z,12.16
2023-06-02T21:37:40.658Z,12.15
2023-06-02T21:40:43.202Z,12.14
2023-06-02T21:43:45.410Z,12.12
2023-06-02T21:46:49.740Z,12.10
2023-06-02T21:49:51.848Z,12.09
2023-06-02T21:52:53.922Z,12.06
2023-06-02T21:55:55.961Z,12.02
2023-06-02T21:58:58.272Z,12.01
2023-06-02T22:02:02.045Z,11.95
2023-06-02T22:05:04.366Z,11.94
2023-06-02T22:08:06.857Z,11.92
2023-06-02T22:11:09.012Z,11.86
2023-06-02T22:14:11.293Z,11.81
2023-06-02T22:17:14.928Z,11.76
2023-06-02T22:20:18.211Z,11.75
2023-06-02T22:23:28.024Z,11.72
2023-06-02T22:26:30.008Z,11.71
2023-06-02T22:29:32.063Z,11.68
2023-06-02T22:32:35.746Z,11.67
2023-06-02T22:35:37.837Z,11.60
2023-06-02T22:38:42.716Z,11.57
2023-06-02T22:41:44.944Z,11.57
2023-06-02T22:44:47.275Z,11.51
2023-06-02T22:47:51.116Z,11.46
2023-06-02T22:50:54.181Z,11.43
2023-06-02T22:53:56.338Z,11.43
2023-06-02T22:57:01.786Z,11.43
2023-06-02T23:00:04.288Z,11.40
2023-06-02T23:03:07.763Z,11.38
2023-06-02T23:06:09.959Z,11.35
2023-06-02T23:09:12.253Z,11.30
2023-06-02T23:12:14.409Z,11.25
2023-06-02T23:15:18.181Z,11.25
2023-06-02T23:18:21.747Z,11.22
2023-06-02T23:21:23.905Z,11.21
2023-06-02T23:24:26.218Z,11.17
2023-06-02T23:27:28.633Z,11.14
2023-06-02T23:30:30.774Z,11.15
2023-06-02T23:33:37.341Z,11.09
2023-06-02T23:36:40.023Z,11.10
2023-06-02T23:39:42.031Z,11.03
2023-06-02T23:42:44.422Z,11.00
2023-06-02T23:45:48.127Z,10.95
2023-06-02T23:48:51.865Z,10.90
2023-06-02T23:51:54.134Z,10.84
2023-06-02T23:54:56.360Z,10.77
2023-06-02T23:57:58.466Z,10.68
